sensor_id;sensor_type;location;lat;lon;timestamp;temperature;humidity
61386;DHT22;47256;18.904;-99.054;2022-10-13T00:01:41;28.30;93.80
61386;DHT22;47256;18.904;-99.054;2022-10-13T00:04:09;28.30;94.00
61386;DHT22;47256;18.904;-99.054;2022-10-13T00:06:39;28.30;93.90
61386;DHT22;47256;18.904;-99.054;2022-10-13T00:09:06;28.20;94.20
61386;DHT22;47256;18.904;-99.054;2022-10-13T00:11:34;28.20;94.20
61386;DHT22;47256;18.904;-99.054;2022-10-13T00:14:04;28.20;94.30
61386;DHT22;47256;18.904;-99.054;2022-10-13T00:16:35;28.10;94.70
61386;DHT22;47256;18.904;-99.054;2022-10-13T00:19:02;28.10;95.00
61386;DHT22;47256;18.904;-99.054;2022-10-13T00:21:32;27.90;95.40
61386;DHT22;47256;18.904;-99.054;2022-10-13T00:23:59;27.80;95.70
61386;DHT22;47256;18.904;-99.054;2022-10-13T00:26:26;27.70;96.00
61386;DHT22;47256;18.904;-99.054;2022-10-13T00:28:55;27.70;96.20
61386;DHT22;47256;18.904;-99.054;2022-10-13T00:31:28;27.60;96.50
61386;DHT22;47256;18.904;-99.054;2022-10-13T00:34:00;27.60;96.70
61386;DHT22;47256;18.904;-99.054;2022-10-13T00:36:28;27.50;96.90
61386;DHT22;47256;18.904;-99.054;2022-10-13T00:38:56;27.50;97.10
61386;DHT22;47256;18.904;-99.054;2022-10-13T00:41:24;27.40;97.10
61386;DHT22;47256;18.904;-99.054;2022-10-13T00:43:59;27.40;97.20
61386;DHT22;47256;18.904;-99.054;2022-10-13T00:46:33;27.30;97.20
61386;DHT22;47256;18.904;-99.054;2022-10-13T00:49:09;27.30;97.50
61386;DHT22;47256;18.904;-99.054;2022-10-13T00:51:44;27.30;97.90
61386;DHT22;47256;18.904;-99.054;2022-10-13T00:54:16;27.20;97.90
61386;DHT22;47256;18.904;-99.054;2022-10-13T00:56:46;27.20;98.10
61386;DHT22;47256;18.904;-99.054;2022-10-13T00:59:25;27.10;98.00
61386;DHT22;47256;18.904;-99.054;2022-10-13T01:01:57;27.10;98.10
61386;DHT22;47256;18.904;-99.054;2022-10-13T01:04:29;27.10;98.10
61386;DHT22;47256;18.904;-99.054;2022-10-13T01:06:58;27.00;97.80
61386;DHT22;47256;18.904;-99.054;2022-10-13T01:09:26;27.00;97.70
61386;DHT22;47256;18.904;-99.054;2022-10-13T01:23:47;26.70;98.60
61386;DHT22;47256;18.904;-99.054;2022-10-13T01:26:56;26.70;98.20
61386;DHT22;47256;18.904;-99.054;2022-10-13T01:32:30;26.70;98.30
61386;DHT22;47256;18.904;-99.054;2022-10-13T01:35:07;26.60;98.30
61386;DHT22;47256;18.904;-99.054;2022-10-13T01:38:15;26.60;98.20
61386;DHT22;47256;18.904;-99.054;2022-10-13T01:43:49;26.60;98.40
61386;DHT22;47256;18.904;-99.054;2022-10-13T01:46:29;26.50;97.80
61386;DHT22;47256;18.904;-99.054;2022-10-13T01:49:01;26.50;97.90
61386;DHT22;47256;18.904;-99.054;2022-10-13T01:51:32;26.50;98.00
61386;DHT22;47256;18.904;-99.054;2022-10-13T01:54:03;26.50;98.10
61386;DHT22;47256;18.904;-99.054;2022-10-13T01:56:31;26.50;97.80
61386;DHT22;47256;18.904;-99.054;2022-10-13T01:59:06;26.40;97.60
61386;DHT22;47256;18.904;-99.054;2022-10-13T02:01:53;26.40;97.50
61386;DHT22;47256;18.904;-99.054;2022-10-13T02:05:02;26.40;97.60
61386;DHT22;47256;18.904;-99.054;2022-10-13T02:07:46;26.40;97.70
61386;DHT22;47256;18.904;-99.054;2022-10-13T02:10:55;26.40;97.70
61386;DHT22;47256;18.904;-99.054;2022-10-13T02:13:28;26.40;97.80
61386;DHT22;47256;18.904;-99.054;2022-10-13T02:16:00;26.30;97.70
61386;DHT22;47256;18.904;-99.054;2022-10-13T02:18:32;26.30;97.70
61386;DHT22;47256;18.904;-99.054;2022-10-13T02:21:09;26.30;98.00
61386;DHT22;47256;18.904;-99.054;2022-10-13T02:23:37;26.20;98.30
61386;DHT22;47256;18.904;-99.054;2022-10-13T02:26:08;26.20;98.20
61386;DHT22;47256;18.904;-99.054;2022-10-13T02:28:37;26.10;98.40
61386;DHT22;47256;18.904;-99.054;2022-10-13T02:31:07;26.10;98.60
61386;DHT22;47256;18.904;-99.054;2022-10-13T02:33:35;26.10;98.50
61386;DHT22;47256;18.904;-99.054;2022-10-13T02:36:06;26.10;98.40
61386;DHT22;47256;18.904;-99.054;2022-10-13T02:38:35;26.10;98.40
61386;DHT22;47256;18.904;-99.054;2022-10-13T02:41:02;26.10;98.50
61386;DHT22;47256;18.904;-99.054;2022-10-13T02:43:31;26.10;98.50
61386;DHT22;47256;18.904;-99.054;2022-10-13T02:46:03;26.10;98.30
61386;DHT22;47256;18.904;-99.054;2022-10-13T02:48:31;26.00;98.70
61386;DHT22;47256;18.904;-99.054;2022-10-13T02:50:59;26.00;98.50
61386;DHT22;47256;18.904;-99.054;2022-10-13T02:53:28;25.90;98.60
61386;DHT22;47256;18.904;-99.054;2022-10-13T02:55:56;25.90;98.90
61386;DHT22;47256;18.904;-99.054;2022-10-13T02:58:25;25.80;99.10
61386;DHT22;47256;18.904;-99.054;2022-10-13T03:00:53;25.80;98.70
61386;DHT22;47256;18.904;-99.054;2022-10-13T03:03:22;25.80;98.70
61386;DHT22;47256;18.904;-99.054;2022-10-13T03:05:51;25.60;98.90
61386;DHT22;47256;18.904;-99.054;2022-10-13T03:08:21;25.70;98.90
61386;DHT22;47256;18.904;-99.054;2022-10-13T03:10:49;25.60;98.90
61386;DHT22;47256;18.904;-99.054;2022-10-13T03:13:17;25.60;98.90
61386;DHT22;47256;18.904;-99.054;2022-10-13T03:15:47;25.60;98.90
61386;DHT22;47256;18.904;-99.054;2022-10-13T03:18:15;25.60;98.80
61386;DHT22;47256;18.904;-99.054;2022-10-13T03:20:43;25.40;99.40
61386;DHT22;47256;18.904;-99.054;2022-10-13T03:23:11;25.30;99.00
61386;DHT22;47256;18.904;-99.054;2022-10-13T03:25:39;25.40;98.90
61386;DHT22;47256;18.904;-99.054;2022-10-13T03:28:08;25.30;99.10
61386;DHT22;47256;18.904;-99.054;2022-10-13T03:30:36;25.30;99.10
61386;DHT22;47256;18.904;-99.054;2022-10-13T03:33:04;25.20;99.00
61386;DHT22;47256;18.904;-99.054;2022-10-13T03:35:31;25.20;98.90
61386;DHT22;47256;18.904;-99.054;2022-10-13T03:37:59;25.20;99.00
61386;DHT22;47256;18.904;-99.054;2022-10-13T03:40:28;25.20;99.00
61386;DHT22;47256;18.904;-99.054;2022-10-13T03:42:55;25.20;99.10
61386;DHT22;47256;18.904;-99.054;2022-10-13T03:45:22;25.20;98.90
61386;DHT22;47256;18.904;-99.054;2022-10-13T03:47:49;25.20;98.90
61386;DHT22;47256;18.904;-99.054;2022-10-13T03:50:17;25.30;98.70
61386;DHT22;47256;18.904;-99.054;2022-10-13T03:52:44;25.30;98.70
61386;DHT22;47256;18.904;-99.054;2022-10-13T03:55:12;25.20;98.80
61386;DHT22;47256;18.904;-99.054;2022-10-13T03:57:39;25.20;98.70
61386;DHT22;47256;18.904;-99.054;2022-10-13T04:00:07;25.20;98.60
61386;DHT22;47256;18.904;-99.054;2022-10-13T04:02:39;25.20;98.70
61386;DHT22;47256;18.904;-99.054;2022-10-13T04:05:06;25.00;98.90
61386;DHT22;47256;18.904;-99.054;2022-10-13T04:07:34;25.00;98.90
61386;DHT22;47256;18.904;-99.054;2022-10-13T04:10:11;25.10;98.60
61386;DHT22;47256;18.904;-99.054;2022-10-13T04:12:40;25.10;98.70
61386;DHT22;47256;18.904;-99.054;2022-10-13T04:15:08;25.00;98.60
61386;DHT22;47256;18.904;-99.054;2022-10-13T04:17:35;25.00;98.90
61386;DHT22;47256;18.904;-99.054;2022-10-13T04:20:03;24.90;98.90
61386;DHT22;47256;18.904;-99.054;2022-10-13T04:22:32;24.90;99.00
61386;DHT22;47256;18.904;-99.054;2022-10-13T04:24:58;24.90;98.80
61386;DHT22;47256;18.904;-99.054;2022-10-13T04:27:27;24.90;98.80
61386;DHT22;47256;18.904;-99.054;2022-10-13T04:29:54;24.90;98.70
61386;DHT22;47256;18.904;-99.054;2022-10-13T04:32:21;24.80;98.80
61386;DHT22;47256;18.904;-99.054;2022-10-13T04:34:47;24.90;98.70
61386;DHT22;47256;18.904;-99.054;2022-10-13T04:37:15;24.90;98.60
61386;DHT22;47256;18.904;-99.054;2022-10-13T04:39:42;24.90;98.70
61386;DHT22;47256;18.904;-99.054;2022-10-13T04:42:09;24.90;98.70
61386;DHT22;47256;18.904;-99.054;2022-10-13T04:44:37;24.90;98.80
61386;DHT22;47256;18.904;-99.054;2022-10-13T04:47:06;25.00;98.80
61386;DHT22;47256;18.904;-99.054;2022-10-13T04:49:33;25.00;98.80
61386;DHT22;47256;18.904;-99.054;2022-10-13T04:52:00;25.00;98.70
61386;DHT22;47256;18.904;-99.054;2022-10-13T04:54:28;24.90;98.80
61386;DHT22;47256;18.904;-99.054;2022-10-13T04:56:56;24.90;99.10
61386;DHT22;47256;18.904;-99.054;2022-10-13T04:59:25;24.90;98.80
61386;DHT22;47256;18.904;-99.054;2022-10-13T05:01:52;24.80;98.90
61386;DHT22;47256;18.904;-99.054;2022-10-13T05:04:21;24.80;99.20
61386;DHT22;47256;18.904;-99.054;2022-10-13T05:06:48;24.80;99.30
61386;DHT22;47256;18.904;-99.054;2022-10-13T05:09:16;24.80;99.20
61386;DHT22;47256;18.904;-99.054;2022-10-13T05:12:08;24.80;99.30
61386;DHT22;47256;18.904;-99.054;2022-10-13T05:14:37;24.90;99.30
61386;DHT22;47256;18.904;-99.054;2022-10-13T05:17:08;24.80;99.30
61386;DHT22;47256;18.904;-99.054;2022-10-13T05:19:36;24.80;99.60
61386;DHT22;47256;18.904;-99.054;2022-10-13T05:22:03;24.70;99.80
61386;DHT22;47256;18.904;-99.054;2022-10-13T05:24:30;24.70;99.70
61386;DHT22;47256;18.904;-99.054;2022-10-13T05:27:09;24.70;99.80
61386;DHT22;47256;18.904;-99.054;2022-10-13T05:29:39;24.70;99.70
61386;DHT22;47256;18.904;-99.054;2022-10-13T05:32:07;24.80;99.70
61386;DHT22;47256;18.904;-99.054;2022-10-13T05:34:35;24.80;99.80
61386;DHT22;47256;18.904;-99.054;2022-10-13T05:37:02;24.80;99.80
61386;DHT22;47256;18.904;-99.054;2022-10-13T05:39:33;24.70;99.90
61386;DHT22;47256;18.904;-99.054;2022-10-13T05:42:00;24.60;99.90
61386;DHT22;47256;18.904;-99.054;2022-10-13T05:44:27;24.60;99.90
61386;DHT22;47256;18.904;-99.054;2022-10-13T05:46:55;24.70;99.60
61386;DHT22;47256;18.904;-99.054;2022-10-13T05:49:22;24.70;99.70
61386;DHT22;47256;18.904;-99.054;2022-10-13T05:51:59;24.70;99.80
61386;DHT22;47256;18.904;-99.054;2022-10-13T05:54:38;24.60;99.80
61386;DHT22;47256;18.904;-99.054;2022-10-13T05:57:17;24.50;99.90
61386;DHT22;47256;18.904;-99.054;2022-10-13T05:59:59;24.40;99.90
61386;DHT22;47256;18.904;-99.054;2022-10-13T06:05:31;24.50;99.90
61386;DHT22;47256;18.904;-99.054;2022-10-13T06:07:58;24.50;99.90
61386;DHT22;47256;18.904;-99.054;2022-10-13T06:10:26;24.50;99.90
61386;DHT22;47256;18.904;-99.054;2022-10-13T06:12:54;24.50;99.90
61386;DHT22;47256;18.904;-99.054;2022-10-13T06:15:22;24.50;99.90
61386;DHT22;47256;18.904;-99.054;2022-10-13T06:17:49;24.40;99.90
61386;DHT22;47256;18.904;-99.054;2022-10-13T06:20:16;24.40;99.90
61386;DHT22;47256;18.904;-99.054;2022-10-13T06:22:43;24.40;99.90
61386;DHT22;47256;18.904;-99.054;2022-10-13T06:25:11;24.30;99.90
61386;DHT22;47256;18.904;-99.054;2022-10-13T06:27:39;24.30;99.90
61386;DHT22;47256;18.904;-99.054;2022-10-13T06:30:06;24.30;99.90
61386;DHT22;47256;18.904;-99.054;2022-10-13T06:32:35;24.30;99.90
61386;DHT22;47256;18.904;-99.054;2022-10-13T06:35:02;24.40;99.90
61386;DHT22;47256;18.904;-99.054;2022-10-13T06:37:29;24.40;99.90
61386;DHT22;47256;18.904;-99.054;2022-10-13T06:39:56;24.40;99.90
61386;DHT22;47256;18.904;-99.054;2022-10-13T06:42:23;24.40;99.90
61386;DHT22;47256;18.904;-99.054;2022-10-13T06:45:07;24.40;99.90
61386;DHT22;47256;18.904;-99.054;2022-10-13T06:47:40;24.30;99.90
61386;DHT22;47256;18.904;-99.054;2022-10-13T06:50:08;24.20;99.90
61386;DHT22;47256;18.904;-99.054;2022-10-13T06:52:35;24.20;99.90
61386;DHT22;47256;18.904;-99.054;2022-10-13T06:55:04;24.20;99.90
61386;DHT22;47256;18.904;-99.054;2022-10-13T06:57:32;24.20;99.90
61386;DHT22;47256;18.904;-99.054;2022-10-13T07:00:04;24.20;99.90
61386;DHT22;47256;18.904;-99.054;2022-10-13T07:02:33;24.30;99.90
61386;DHT22;47256;18.904;-99.054;2022-10-13T07:05:00;24.30;99.90
61386;DHT22;47256;18.904;-99.054;2022-10-13T07:07:27;24.30;99.90
61386;DHT22;47256;18.904;-99.054;2022-10-13T07:09:55;24.30;99.90
61386;DHT22;47256;18.904;-99.054;2022-10-13T07:12:23;24.30;99.90
61386;DHT22;47256;18.904;-99.054;2022-10-13T07:14:50;24.20;99.90
61386;DHT22;47256;18.904;-99.054;2022-10-13T07:17:18;24.10;99.90
61386;DHT22;47256;18.904;-99.054;2022-10-13T07:19:44;24.00;99.90
61386;DHT22;47256;18.904;-99.054;2022-10-13T07:22:16;24.00;99.90
61386;DHT22;47256;18.904;-99.054;2022-10-13T07:24:43;23.90;99.90
61386;DHT22;47256;18.904;-99.054;2022-10-13T07:27:13;23.90;99.90
61386;DHT22;47256;18.904;-99.054;2022-10-13T07:29:40;23.80;99.90
61386;DHT22;47256;18.904;-99.054;2022-10-13T07:32:07;23.90;99.90
61386;DHT22;47256;18.904;-99.054;2022-10-13T07:34:34;23.90;99.90
61386;DHT22;47256;18.904;-99.054;2022-10-13T07:37:01;23.90;99.90
61386;DHT22;47256;18.904;-99.054;2022-10-13T07:39:29;23.80;99.90
61386;DHT22;47256;18.904;-99.054;2022-10-13T07:41:57;23.80;99.90
61386;DHT22;47256;18.904;-99.054;2022-10-13T07:44:24;23.80;99.90
61386;DHT22;47256;18.904;-99.054;2022-10-13T07:46:51;23.80;99.90
61386;DHT22;47256;18.904;-99.054;2022-10-13T07:49:19;23.80;99.90
61386;DHT22;47256;18.904;-99.054;2022-10-13T07:51:46;23.70;99.90
61386;DHT22;47256;18.904;-99.054;2022-10-13T07:54:17;23.70;99.90
61386;DHT22;47256;18.904;-99.054;2022-10-13T07:56:44;23.60;99.90
61386;DHT22;47256;18.904;-99.054;2022-10-13T07:59:15;23.60;99.90
61386;DHT22;47256;18.904;-99.054;2022-10-13T08:01:44;23.70;99.90
61386;DHT22;47256;18.904;-99.054;2022-10-13T08:04:11;23.70;99.90
61386;DHT22;47256;18.904;-99.054;2022-10-13T08:06:42;23.70;99.90
61386;DHT22;47256;18.904;-99.054;2022-10-13T08:09:09;23.70;99.90
61386;DHT22;47256;18.904;-99.054;2022-10-13T08:11:37;23.60;99.90
61386;DHT22;47256;18.904;-99.054;2022-10-13T08:14:04;23.60;99.90
61386;DHT22;47256;18.904;-99.054;2022-10-13T08:16:34;23.60;99.90
61386;DHT22;47256;18.904;-99.054;2022-10-13T08:19:01;23.60;99.90
61386;DHT22;47256;18.904;-99.054;2022-10-13T08:21:30;23.70;99.90
61386;DHT22;47256;18.904;-99.054;2022-10-13T08:23:56;23.60;99.90
61386;DHT22;47256;18.904;-99.054;2022-10-13T08:26:26;23.60;99.90
61386;DHT22;47256;18.904;-99.054;2022-10-13T08:28:54;23.60;99.90
61386;DHT22;47256;18.904;-99.054;2022-10-13T08:31:21;23.60;99.90
61386;DHT22;47256;18.904;-99.054;2022-10-13T08:33:51;23.60;99.90
61386;DHT22;47256;18.904;-99.054;2022-10-13T08:36:19;23.60;99.90
61386;DHT22;47256;18.904;-99.054;2022-10-13T08:38:46;23.50;99.90
61386;DHT22;47256;18.904;-99.054;2022-10-13T08:41:24;23.40;99.90
61386;DHT22;47256;18.904;-99.054;2022-10-13T08:47:09;23.40;99.90
61386;DHT22;47256;18.904;-99.054;2022-10-13T08:49:40;23.40;99.90
61386;DHT22;47256;18.904;-99.054;2022-10-13T08:52:15;23.40;99.90
61386;DHT22;47256;18.904;-99.054;2022-10-13T08:54:47;23.40;99.90
61386;DHT22;47256;18.904;-99.054;2022-10-13T08:57:15;23.40;99.90
61386;DHT22;47256;18.904;-99.054;2022-10-13T08:59:42;23.40;99.90
61386;DHT22;47256;18.904;-99.054;2022-10-13T09:02:20;23.50;99.90
61386;DHT22;47256;18.904;-99.054;2022-10-13T09:04:51;23.50;99.90
61386;DHT22;47256;18.904;-99.054;2022-10-13T09:07:27;23.50;99.90
61386;DHT22;47256;18.904;-99.054;2022-10-13T09:09:55;23.50;99.90
61386;DHT22;47256;18.904;-99.054;2022-10-13T09:12:24;23.50;99.90
61386;DHT22;47256;18.904;-99.054;2022-10-13T09:15:07;23.40;99.90
61386;DHT22;47256;18.904;-99.054;2022-10-13T09:17:40;23.40;99.90
61386;DHT22;47256;18.904;-99.054;2022-10-13T09:20:24;23.40;99.90
61386;DHT22;47256;18.904;-99.054;2022-10-13T09:23:16;23.50;99.90
61386;DHT22;47256;18.904;-99.054;2022-10-13T09:25:47;23.30;99.90
61386;DHT22;47256;18.904;-99.054;2022-10-13T09:28:25;23.20;99.90
61386;DHT22;47256;18.904;-99.054;2022-10-13T09:33:34;23.40;99.90
61386;DHT22;47256;18.904;-99.054;2022-10-13T09:38:30;23.40;99.90
61386;DHT22;47256;18.904;-99.054;2022-10-13T09:46:22;23.40;99.90
61386;DHT22;47256;18.904;-99.054;2022-10-13T09:48:54;23.40;99.90
61386;DHT22;47256;18.904;-99.054;2022-10-13T09:51:37;23.40;99.90
61386;DHT22;47256;18.904;-99.054;2022-10-13T09:54:45;23.40;99.90
61386;DHT22;47256;18.904;-99.054;2022-10-13T09:57:42;23.30;99.90
61386;DHT22;47256;18.904;-99.054;2022-10-13T10:00:23;23.30;99.90
61386;DHT22;47256;18.904;-99.054;2022-10-13T10:10:55;23.20;99.90
61386;DHT22;47256;18.904;-99.054;2022-10-13T10:13:23;23.30;99.90
61386;DHT22;47256;18.904;-99.054;2022-10-13T10:21:17;23.30;99.90
61386;DHT22;47256;18.904;-99.054;2022-10-13T10:24:07;23.30;99.90
61386;DHT22;47256;18.904;-99.054;2022-10-13T10:26:52;23.30;99.90
61386;DHT22;47256;18.904;-99.054;2022-10-13T10:32:59;23.30;99.90
61386;DHT22;47256;18.904;-99.054;2022-10-13T10:37:40;23.40;99.90
61386;DHT22;47256;18.904;-99.054;2022-10-13T10:45:47;23.10;99.90
61386;DHT22;47256;18.904;-99.054;2022-10-13T10:48:23;23.20;99.90
61386;DHT22;47256;18.904;-99.054;2022-10-13T10:50:52;23.20;99.90
61386;DHT22;47256;18.904;-99.054;2022-10-13T10:53:32;23.20;99.90
61386;DHT22;47256;18.904;-99.054;2022-10-13T10:56:14;23.20;99.90
61386;DHT22;47256;18.904;-99.054;2022-10-13T11:06:39;23.20;99.90
61386;DHT22;47256;18.904;-99.054;2022-10-13T11:09:06;23.20;99.90
61386;DHT22;47256;18.904;-99.054;2022-10-13T11:11:41;23.20;99.90
61386;DHT22;47256;18.904;-99.054;2022-10-13T11:17:29;23.20;99.90
61386;DHT22;47256;18.904;-99.054;2022-10-13T11:25:47;23.20;99.90
61386;DHT22;47256;18.904;-99.054;2022-10-13T11:31:46;23.10;99.90
61386;DHT22;47256;18.904;-99.054;2022-10-13T11:34:35;23.10;99.90
61386;DHT22;47256;18.904;-99.054;2022-10-13T11:37:15;23.10;99.90
61386;DHT22;47256;18.904;-99.054;2022-10-13T11:39:56;23.10;99.90
61386;DHT22;47256;18.904;-99.054;2022-10-13T11:42:34;23.10;99.90
61386;DHT22;47256;18.904;-99.054;2022-10-13T11:45:26;23.10;99.90
61386;DHT22;47256;18.904;-99.054;2022-10-13T11:56:51;23.00;99.90
61386;DHT22;47256;18.904;-99.054;2022-10-13T11:59:32;23.10;99.90
61386;DHT22;47256;18.904;-99.054;2022-10-13T12:02:26;23.00;99.90
61386;DHT22;47256;18.904;-99.054;2022-10-13T12:05:26;23.00;99.90
61386;DHT22;47256;18.904;-99.054;2022-10-13T12:08:01;23.00;99.90
61386;DHT22;47256;18.904;-99.054;2022-10-13T12:10:33;22.90;99.90
61386;DHT22;47256;18.904;-99.054;2022-10-13T12:13:03;22.80;99.90
61386;DHT22;47256;18.904;-99.054;2022-10-13T12:15:34;22.80;99.90
61386;DHT22;47256;18.904;-99.054;2022-10-13T12:18:25;22.80;99.90
61386;DHT22;47256;18.904;-99.054;2022-10-13T12:20:56;22.80;99.90
61386;DHT22;47256;18.904;-99.054;2022-10-13T12:23:25;22.80;99.90
61386;DHT22;47256;18.904;-99.054;2022-10-13T12:25:53;22.70;99.90
61386;DHT22;47256;18.904;-99.054;2022-10-13T12:28:28;22.70;99.90
61386;DHT22;47256;18.904;-99.054;2022-10-13T12:30:59;22.70;99.90
61386;DHT22;47256;18.904;-99.054;2022-10-13T12:33:33;22.70;99.90
61386;DHT22;47256;18.904;-99.054;2022-10-13T12:36:18;22.70;99.90
61386;DHT22;47256;18.904;-99.054;2022-10-13T12:38:52;22.70;99.90
61386;DHT22;47256;18.904;-99.054;2022-10-13T12:41:27;22.70;99.90
61386;DHT22;47256;18.904;-99.054;2022-10-13T12:43:56;22.60;99.90
61386;DHT22;47256;18.904;-99.054;2022-10-13T12:46:39;22.50;99.90
61386;DHT22;47256;18.904;-99.054;2022-10-13T12:49:32;22.50;99.90
61386;DHT22;47256;18.904;-99.054;2022-10-13T12:54:49;22.60;99.90
61386;DHT22;47256;18.904;-99.054;2022-10-13T12:57:36;22.60;99.90
61386;DHT22;47256;18.904;-99.054;2022-10-13T13:00:26;22.60;99.90
61386;DHT22;47256;18.904;-99.054;2022-10-13T13:03:02;22.70;99.90
61386;DHT22;47256;18.904;-99.054;2022-10-13T13:05:42;22.60;99.90
61386;DHT22;47256;18.904;-99.054;2022-10-13T13:08:28;22.60;99.90
61386;DHT22;47256;18.904;-99.054;2022-10-13T13:11:01;22.70;99.90
61386;DHT22;47256;18.904;-99.054;2022-10-13T13:13:28;22.70;99.90
61386;DHT22;47256;18.904;-99.054;2022-10-13T13:16:16;22.70;99.90
61386;DHT22;47256;18.904;-99.054;2022-10-13T13:18:49;22.80;99.90
61386;DHT22;47256;18.904;-99.054;2022-10-13T13:21:19;22.90;99.90
61386;DHT22;47256;18.904;-99.054;2022-10-13T13:23:47;23.00;99.90
61386;DHT22;47256;18.904;-99.054;2022-10-13T13:26:21;23.00;99.90
61386;DHT22;47256;18.904;-99.054;2022-10-13T13:28:54;23.10;99.90
61386;DHT22;47256;18.904;-99.054;2022-10-13T13:31:26;23.20;99.90
61386;DHT22;47256;18.904;-99.054;2022-10-13T13:33:53;23.30;99.90
61386;DHT22;47256;18.904;-99.054;2022-10-13T13:36:24;23.40;99.90
61386;DHT22;47256;18.904;-99.054;2022-10-13T13:38:52;23.40;99.90
61386;DHT22;47256;18.904;-99.054;2022-10-13T13:41:20;23.50;99.90
61386;DHT22;47256;18.904;-99.054;2022-10-13T13:43:48;23.50;99.90
61386;DHT22;47256;18.904;-99.054;2022-10-13T13:46:24;23.50;99.90
61386;DHT22;47256;18.904;-99.054;2022-10-13T13:48:53;23.60;99.90
61386;DHT22;47256;18.904;-99.054;2022-10-13T13:51:21;23.60;99.90
61386;DHT22;47256;18.904;-99.054;2022-10-13T13:53:48;23.70;99.90
61386;DHT22;47256;18.904;-99.054;2022-10-13T13:56:18;23.80;99.90
61386;DHT22;47256;18.904;-99.054;2022-10-13T13:58:45;23.80;99.90
61386;DHT22;47256;18.904;-99.054;2022-10-13T14:01:13;23.80;99.90
61386;DHT22;47256;18.904;-99.054;2022-10-13T14:03:42;23.80;99.90
61386;DHT22;47256;18.904;-99.054;2022-10-13T14:06:20;23.80;99.90
61386;DHT22;47256;18.904;-99.054;2022-10-13T14:08:49;23.80;99.90
61386;DHT22;47256;18.904;-99.054;2022-10-13T14:11:18;23.80;99.90
61386;DHT22;47256;18.904;-99.054;2022-10-13T14:13:46;23.80;99.90
61386;DHT22;47256;18.904;-99.054;2022-10-13T14:16:23;23.80;99.90
61386;DHT22;47256;18.904;-99.054;2022-10-13T14:18:50;23.90;99.90
61386;DHT22;47256;18.904;-99.054;2022-10-13T14:21:18;23.90;99.90
61386;DHT22;47256;18.904;-99.054;2022-10-13T14:23:46;23.90;99.90
61386;DHT22;47256;18.904;-99.054;2022-10-13T14:26:13;23.90;99.90
61386;DHT22;47256;18.904;-99.054;2022-10-13T14:28:43;23.90;99.90
61386;DHT22;47256;18.904;-99.054;2022-10-13T14:31:11;23.90;99.90
61386;DHT22;47256;18.904;-99.054;2022-10-13T14:33:41;23.90;99.90
61386;DHT22;47256;18.904;-99.054;2022-10-13T14:36:08;23.90;99.90
61386;DHT22;47256;18.904;-99.054;2022-10-13T14:38:36;24.00;99.90
61386;DHT22;47256;18.904;-99.054;2022-10-13T14:41:04;24.10;99.90
61386;DHT22;47256;18.904;-99.054;2022-10-13T14:43:33;24.20;99.90
61386;DHT22;47256;18.904;-99.054;2022-10-13T14:46:04;24.20;99.90
61386;DHT22;47256;18.904;-99.054;2022-10-13T14:48:33;24.30;99.90
61386;DHT22;47256;18.904;-99.054;2022-10-13T14:51:07;24.40;99.90
61386;DHT22;47256;18.904;-99.054;2022-10-13T14:53:37;24.40;99.90
61386;DHT22;47256;18.904;-99.054;2022-10-13T14:58:52;24.40;99.90
61386;DHT22;47256;18.904;-99.054;2022-10-13T15:01:28;24.40;99.90
61386;DHT22;47256;18.904;-99.054;2022-10-13T15:03:55;24.50;99.90
61386;DHT22;47256;18.904;-99.054;2022-10-13T15:06:28;24.70;99.90
61386;DHT22;47256;18.904;-99.054;2022-10-13T15:08:55;24.90;99.90
61386;DHT22;47256;18.904;-99.054;2022-10-13T15:11:24;25.10;99.90
61386;DHT22;47256;18.904;-99.054;2022-10-13T15:13:52;25.30;99.90
61386;DHT22;47256;18.904;-99.054;2022-10-13T15:16:22;25.40;99.90
61386;DHT22;47256;18.904;-99.054;2022-10-13T15:18:49;25.60;99.90
61386;DHT22;47256;18.904;-99.054;2022-10-13T15:21:17;25.70;99.90
61386;DHT22;47256;18.904;-99.054;2022-10-13T15:23:45;25.90;99.90
61386;DHT22;47256;18.904;-99.054;2022-10-13T15:26:14;26.10;99.90
61386;DHT22;47256;18.904;-99.054;2022-10-13T15:28:45;26.20;99.90
61386;DHT22;47256;18.904;-99.054;2022-10-13T15:31:13;26.30;99.90
61386;DHT22;47256;18.904;-99.054;2022-10-13T15:33:45;26.40;99.90
61386;DHT22;47256;18.904;-99.054;2022-10-13T15:36:15;26.60;99.90
61386;DHT22;47256;18.904;-99.054;2022-10-13T15:38:42;26.60;98.80
61386;DHT22;47256;18.904;-99.054;2022-10-13T15:41:11;26.80;99.80
61386;DHT22;47256;18.904;-99.054;2022-10-13T15:43:38;26.90;99.30
61386;DHT22;47256;18.904;-99.054;2022-10-13T15:46:11;27.10;99.80
61386;DHT22;47256;18.904;-99.054;2022-10-13T15:48:39;27.20;98.90
61386;DHT22;47256;18.904;-99.054;2022-10-13T15:51:16;27.40;99.30
61386;DHT22;47256;18.904;-99.054;2022-10-13T15:53:46;27.60;99.00
61386;DHT22;47256;18.904;-99.054;2022-10-13T15:56:16;27.70;99.30
61386;DHT22;47256;18.904;-99.054;2022-10-13T15:58:45;27.80;98.40
61386;DHT22;47256;18.904;-99.054;2022-10-13T16:01:12;27.80;97.40
61386;DHT22;47256;18.904;-99.054;2022-10-13T16:03:41;27.90;97.90
61386;DHT22;47256;18.904;-99.054;2022-10-13T16:06:10;28.10;98.30
61386;DHT22;47256;18.904;-99.054;2022-10-13T16:08:40;28.10;98.20
61386;DHT22;47256;18.904;-99.054;2022-10-13T16:11:13;28.20;97.70
61386;DHT22;47256;18.904;-99.054;2022-10-13T16:13:46;28.30;98.00
61386;DHT22;47256;18.904;-99.054;2022-10-13T16:16:14;28.40;96.90
61386;DHT22;47256;18.904;-99.054;2022-10-13T16:18:42;28.50;97.00
61386;DHT22;47256;18.904;-99.054;2022-10-13T16:21:14;28.50;97.60
61386;DHT22;47256;18.904;-99.054;2022-10-13T16:23:42;28.50;97.40
61386;DHT22;47256;18.904;-99.054;2022-10-13T16:26:09;28.70;97.20
61386;DHT22;47256;18.904;-99.054;2022-10-13T16:28:38;28.50;96.30
61386;DHT22;47256;18.904;-99.054;2022-10-13T16:31:08;28.60;98.00
61386;DHT22;47256;18.904;-99.054;2022-10-13T16:33:42;28.80;96.80
61386;DHT22;47256;18.904;-99.054;2022-10-13T16:36:12;29.00;97.40
61386;DHT22;47256;18.904;-99.054;2022-10-13T16:38:45;29.00;96.30
61386;DHT22;47256;18.904;-99.054;2022-10-13T16:41:15;29.00;96.30
61386;DHT22;47256;18.904;-99.054;2022-10-13T16:43:44;29.00;96.50
61386;DHT22;47256;18.904;-99.054;2022-10-13T16:46:12;29.20;97.50
61386;DHT22;47256;18.904;-99.054;2022-10-13T16:48:40;29.30;96.20
61386;DHT22;47256;18.904;-99.054;2022-10-13T16:51:10;29.40;95.60
61386;DHT22;47256;18.904;-99.054;2022-10-13T16:53:38;29.60;96.50
61386;DHT22;47256;18.904;-99.054;2022-10-13T16:56:06;29.70;95.50
61386;DHT22;47256;18.904;-99.054;2022-10-13T16:58:34;29.90;95.10
61386;DHT22;47256;18.904;-99.054;2022-10-13T17:01:04;30.00;95.50
61386;DHT22;47256;18.904;-99.054;2022-10-13T17:03:35;29.90;95.10